createdAt,value
2018-03-28T00:02:05.894Z,99.90
2018-03-28T00:04:35.528Z,99.90
2018-03-28T00:07:20.399Z,99.90
2018-03-28T00:09:56.485Z,99.90
2018-03-28T00:12:28.344Z,99.90
2018-03-28T00:15:08.681Z,99.90
2018-03-28T00:17:46.513Z,99.90
2018-03-28T00:20:26.302Z,99.90
2018-03-28T00:23:02.312Z,99.90
2018-03-28T00:25:29.788Z,99.90
2018-03-28T00:28:05.371Z,99.90
2018-03-28T00:30:34.601Z,99.90
2018-03-28T00:33:19.260Z,99.90
2018-03-28T00:35:59.819Z,99.90
2018-03-28T00:38:28.048Z,99.90
2018-03-28T00:41:04.867Z,99.90
2018-03-28T00:43:32.318Z,99.90
2018-03-28T00:46:05.160Z,99.90
2018-03-28T00:48:32.658Z,99.90
2018-03-28T00:51:24.583Z,99.90
2018-03-28T00:54:04.953Z,99.90
2018-03-28T00:56:32.406Z,99.90
2018-03-28T00:59:09.317Z,99.90
2018-03-28T01:01:47.333Z,99.90
2018-03-28T01:04:25.346Z,99.90
2018-03-28T01:07:04.109Z,99.90
2018-03-28T01:09:31.565Z,99.90
2018-03-28T01:12:05.582Z,99.90
2018-03-28T01:14:33.716Z,99.90
2018-03-28T01:17:04.564Z,99.90
2018-03-28T01:19:32.031Z,99.90
2018-03-28T01:22:07.817Z,99.90
2018-03-28T01:24:42.809Z,99.90
2018-03-28T01:27:22.476Z,99.90
2018-03-28T01:29:52.909Z,99.90
2018-03-28T01:32:29.396Z,99.90
2018-03-28T01:35:05.737Z,99.90
2018-03-28T01:37:34.878Z,99.90
2018-03-28T01:40:05.128Z,99.90
2018-03-28T01:42:32.629Z,99.90
2018-03-28T01:45:06.921Z,99.90
2018-03-28T01:47:40.858Z,99.90
2018-03-28T01:50:13.335Z,99.90
2018-03-28T01:52:44.679Z,99.90
2018-03-28T01:55:23.284Z,99.90
2018-03-28T02:00:25.807Z,99.90
2018-03-28T02:03:00.674Z,99.90
2018-03-28T02:05:35.145Z,99.90
2018-03-28T02:08:12.927Z,99.90
2018-03-28T02:10:44.479Z,99.90
2018-03-28T02:13:26.562Z,99.90
2018-03-28T02:16:02.315Z,99.90
2018-03-28T02:18:30.565Z,99.90
2018-03-28T02:21:03.689Z,99.90
2018-03-28T02:23:31.164Z,99.90
2018-03-28T02:26:04.585Z,99.90
2018-03-28T02:28:36.071Z,99.90
2018-03-28T02:31:12.346Z,99.70
2018-03-28T02:33:52.815Z,99.60
2018-03-28T02:36:26.866Z,99.30
2018-03-28T02:39:05.964Z,99.20
2018-03-28T02:41:34.064Z,98.90
2018-03-28T02:44:06.788Z,98.90
2018-03-28T02:46:36.087Z,98.80
2018-03-28T02:49:09.123Z,99.20
2018-03-28T02:51:42.371Z,98.80
2018-03-28T02:54:23.973Z,99.20
2018-03-28T02:56:53.560Z,98.70
2018-03-28T02:59:28.988Z,98.30
2018-03-28T03:02:03.295Z,98.30
2018-03-28T03:04:31.651Z,98.10
2018-03-28T03:07:04.722Z,98.10
2018-03-28T03:09:32.207Z,98.10
2018-03-28T03:12:05.484Z,98.10
2018-03-28T03:14:32.970Z,97.90
2018-03-28T03:17:04.441Z,97.90
2018-03-28T03:19:32.678Z,97.60
2018-03-28T03:22:04.652Z,97.60
2018-03-28T03:24:32.143Z,97.60
2018-03-28T03:27:04.518Z,97.80
2018-03-28T03:29:31.979Z,97.90
2018-03-28T03:32:02.857Z,98.00
2018-03-28T03:34:30.314Z,97.90
2018-03-28T03:37:05.428Z,98.00
2018-03-28T03:39:32.959Z,98.00
2018-03-28T03:42:07.493Z,98.00
2018-03-28T03:44:42.250Z,97.90
2018-03-28T03:50:02.139Z,97.80
2018-03-28T03:52:29.593Z,97.80
2018-03-28T03:54:57.053Z,97.60
2018-03-28T03:57:28.913Z,97.50
2018-03-28T04:00:04.378Z,97.40
2018-03-28T04:02:31.836Z,96.80
2018-03-28T04:05:03.021Z,96.90
2018-03-28T04:07:30.476Z,96.90
2018-03-28T04:10:03.246Z,96.90
2018-03-28T04:12:31.754Z,96.70
2018-03-28T04:15:06.983Z,96.70
2018-03-28T04:17:44.161Z,96.70
2018-03-28T04:20:22.346Z,96.70
2018-03-28T04:22:50.591Z,96.70
2018-03-28T04:25:28.147Z,96.70
2018-03-28T04:27:56.385Z,96.70
2018-03-28T04:30:28.211Z,96.70
2018-03-28T04:33:02.234Z,96.70
2018-03-28T04:35:32.684Z,96.90
2018-03-28T04:38:13.842Z,97.00
2018-03-28T04:40:44.613Z,97.10
2018-03-28T04:43:21.380Z,97.20
2018-03-28T04:45:51.966Z,97.30
2018-03-28T04:48:23.489Z,97.40
2018-03-28T04:51:05.228Z,97.60
2018-03-28T04:53:32.690Z,97.60
2018-03-28T04:56:03.791Z,97.40
2018-03-28T04:58:31.485Z,97.30
2018-03-28T05:01:09.450Z,97.10
2018-03-28T05:03:44.132Z,97.40
2018-03-28T05:06:24.103Z,96.50
2018-03-28T05:08:53.817Z,96.40
2018-03-28T05:11:31.168Z,96.10
2018-03-28T05:14:07.075Z,96.00
2018-03-28T05:16:37.358Z,95.80
2018-03-28T05:19:10.151Z,95.50
2018-03-28T05:21:40.306Z,95.50
2018-03-28T05:24:13.407Z,95.10
2018-03-28T05:26:48.914Z,94.90
2018-03-28T05:29:16.407Z,94.80
2018-03-28T05:31:51.499Z,94.80
2018-03-28T05:35:00.837Z,94.50
2018-03-28T05:37:46.519Z,94.30
2018-03-28T05:40:27.696Z,94.20
2018-03-28T05:43:07.449Z,93.80
2018-03-28T05:45:37.593Z,93.50
2018-03-28T05:48:09.121Z,93.50
2018-03-28T05:50:44.935Z,93.40
2018-03-28T05:53:20.418Z,93.80
2018-03-28T05:55:56.672Z,93.80
2018-03-28T05:58:28.061Z,93.80
2018-03-28T06:01:07.290Z,93.50
2018-03-28T06:03:43.414Z,93.40
2018-03-28T06:06:23.954Z,93.30
2018-03-28T06:09:03.056Z,93.10
2018-03-28T06:11:31.151Z,92.90
2018-03-28T06:14:09.166Z,92.70
2018-03-28T06:16:46.702Z,93.10
2018-03-28T06:22:05.021Z,93.00
2018-03-28T06:24:33.252Z,92.90
2018-03-28T06:27:00.716Z,92.90
2018-03-28T06:29:28.186Z,92.60
2018-03-28T06:31:55.665Z,92.60
2018-03-28T06:34:23.132Z,92.70
2018-03-28T06:36:50.600Z,92.70
2018-03-28T06:39:18.062Z,92.50
2018-03-28T06:41:45.538Z,92.50
2018-03-28T06:44:13.008Z,92.50
2018-03-28T06:46:41.244Z,92.20
2018-03-28T06:49:08.696Z,92.40
2018-03-28T06:51:36.179Z,91.60
2018-03-28T06:54:04.020Z,91.50
2018-03-28T06:56:31.483Z,91.30
2018-03-28T06:58:58.977Z,91.10
2018-03-28T07:01:26.449Z,91.20
2018-03-28T07:03:53.907Z,91.20
2018-03-28T07:06:21.387Z,91.10
2018-03-28T07:08:48.862Z,91.10
2018-03-28T07:11:16.427Z,91.00
2018-03-28T07:13:43.917Z,91.30
2018-03-28T07:16:12.144Z,91.30
2018-03-28T07:18:39.608Z,91.20
2018-03-28T07:21:07.095Z,91.10
2018-03-28T07:23:34.566Z,91.00
2018-03-28T07:26:02.126Z,90.70
2018-03-28T07:28:29.703Z,90.50
2018-03-28T07:30:57.168Z,90.20
2018-03-28T07:33:25.403Z,90.10
2018-03-28T07:35:52.894Z,90.10
2018-03-28T07:38:20.358Z,90.10
2018-03-28T07:40:47.820Z,89.80
2018-03-28T07:43:15.349Z,89.20
2018-03-28T07:45:43.538Z,89.40
2018-03-28T07:48:11.010Z,89.40
2018-03-28T07:50:38.493Z,89.50
2018-03-28T07:53:05.950Z,89.30
2018-03-28T07:55:33.424Z,89.40
2018-03-28T07:58:00.912Z,88.70
2018-03-28T08:00:29.149Z,88.60
2018-03-28T08:02:56.613Z,88.60
2018-03-28T08:05:24.080Z,87.10
2018-03-28T08:07:51.541Z,87.20
2018-03-28T08:10:19.020Z,87.30
2018-03-28T08:12:46.500Z,87.30
2018-03-28T08:15:14.740Z,85.30
2018-03-28T08:17:42.210Z,85.30
2018-03-28T08:20:09.731Z,84.80
2018-03-28T08:22:37.163Z,84.20
2018-03-28T08:25:04.634Z,84.60
2018-03-28T08:27:32.104Z,84.60
2018-03-28T08:30:00.319Z,84.70
2018-03-28T08:32:27.788Z,84.00
2018-03-28T08:34:55.278Z,84.90
2018-03-28T08:37:22.747Z,83.40
2018-03-28T08:39:50.224Z,82.30
2018-03-28T08:42:17.710Z,82.50
2018-03-28T08:44:45.943Z,81.80
2018-03-28T08:47:13.403Z,81.80
2018-03-28T08:49:40.880Z,81.20
2018-03-28T08:52:08.346Z,79.80
2018-03-28T08:54:35.848Z,78.40
2018-03-28T08:57:04.072Z,76.80
2018-03-28T08:59:31.549Z,76.80
2018-03-28T09:01:59.083Z,77.20
2018-03-28T09:04:26.494Z,75.50
2018-03-28T09:06:53.979Z,74.80
2018-03-28T09:09:22.221Z,74.40
2018-03-28T09:11:49.708Z,74.40
2018-03-28T09:14:17.166Z,75.00
2018-03-28T09:16:44.641Z,75.60
2018-03-28T09:19:12.134Z,73.20
2018-03-28T09:21:39.618Z,71.20
2018-03-28T09:24:07.089Z,71.80
2018-03-28T09:26:34.571Z,71.40
2018-03-28T09:29:02.048Z,70.70
2018-03-28T09:31:29.537Z,71.80
2018-03-28T09:33:57.768Z,73.50
2018-03-28T09:36:26.025Z,74.10
2018-03-28T09:38:53.582Z,74.10
2018-03-28T09:41:21.050Z,74.70
2018-03-28T09:43:48.552Z,74.50
2018-03-28T09:46:16.021Z,73.60
2018-03-28T09:48:43.500Z,73.40
2018-03-28T09:51:10.962Z,72.90
2018-03-28T09:53:38.437Z,72.10
2018-03-28T09:56:06.694Z,70.10
2018-03-28T09:58:34.160Z,70.80
2018-03-28T10:01:07.369Z,70.00
2018-03-28T10:03:34.840Z,68.80
2018-03-28T10:06:02.303Z,67.80
2018-03-28T10:08:30.526Z,66.30
2018-03-28T10:10:57.993Z,66.20
2018-03-28T10:13:25.800Z,65.20
2018-03-28T10:15:53.266Z,65.50
2018-03-28T10:18:20.743Z,65.40
2018-03-28T10:20:48.974Z,64.80
2018-03-28T10:23:16.445Z,64.70
2018-03-28T10:25:44.247Z,64.70
2018-03-28T10:28:11.711Z,64.70
2018-03-28T10:30:39.172Z,64.70
2018-03-28T10:33:06.626Z,64.80
2018-03-28T10:35:34.091Z,64.70
2018-03-28T10:38:01.571Z,65.50
2018-03-28T10:40:29.052Z,63.90
2018-03-28T10:42:57.271Z,64.70
2018-03-28T10:45:24.738Z,64.70
2018-03-28T10:47:52.199Z,65.10
2018-03-28T10:50:19.679Z,65.70
2018-03-28T10:52:47.140Z,66.30
2018-03-28T10:55:14.607Z,67.80
2018-03-28T10:57:42.083Z,70.20
2018-03-28T11:00:09.549Z,71.60
2018-03-28T11:02:37.053Z,73.20
2018-03-28T11:05:04.512Z,74.40
2018-03-28T11:07:31.990Z,77.40
2018-03-28T11:09:59.455Z,78.50
2018-03-28T11:12:26.916Z,80.70
2018-03-28T11:14:54.477Z,80.70
2018-03-28T11:17:21.966Z,81.60
2018-03-28T11:19:49.436Z,82.00
2018-03-28T11:22:16.906Z,84.00
2018-03-28T11:24:44.377Z,84.80
2018-03-28T11:27:11.863Z,85.30
2018-03-28T11:29:40.104Z,87.30
2018-03-28T11:32:07.641Z,87.30
2018-03-28T11:34:35.103Z,88.30
2018-03-28T11:37:02.586Z,88.10
2018-03-28T11:39:30.069Z,88.60
2018-03-28T11:41:57.539Z,89.20
2018-03-28T11:44:24.992Z,89.60
2018-03-28T11:46:52.470Z,90.10
2018-03-28T11:49:19.929Z,90.40
2018-03-28T11:51:47.420Z,90.40
2018-03-28T11:54:15.660Z,91.10
2018-03-28T11:56:43.140Z,91.10
2018-03-28T11:59:10.615Z,91.20
2018-03-28T12:01:38.148Z,91.40
2018-03-28T12:04:06.358Z,91.80
2018-03-28T12:06:33.827Z,91.80
2018-03-28T12:09:01.307Z,92.60
2018-03-28T12:11:29.552Z,93.40
2018-03-28T12:13:57.008Z,93.30
2018-03-28T12:16:24.506Z,93.50
2018-03-28T12:18:52.735Z,93.80
2018-03-28T12:21:20.194Z,93.70
2018-03-28T12:23:47.669Z,93.50
2018-03-28T12:26:15.142Z,93.40
2018-03-28T12:28:42.632Z,93.50
2018-03-28T12:31:10.103Z,93.50
2018-03-28T12:33:38.322Z,93.50
2018-03-28T12:36:05.807Z,93.50
2018-03-28T12:38:33.275Z,93.40
2018-03-28T12:41:00.758Z,93.10
2018-03-28T12:43:28.238Z,93.40
2018-03-28T12:45:55.717Z,93.70
2018-03-28T12:48:23.953Z,94.00
2018-03-28T12:50:51.426Z,94.00
2018-03-28T12:53:18.948Z,94.30
2018-03-28T12:55:47.155Z,94.40
2018-03-28T12:58:14.642Z,94.30
2018-03-28T13:00:42.123Z,94.30
2018-03-28T13:03:10.361Z,94.60
2018-03-28T13:05:37.846Z,94.50
2018-03-28T13:08:05.359Z,94.80
2018-03-28T13:10:33.565Z,95.00
2018-03-28T13:13:01.052Z,95.00
2018-03-28T13:15:28.510Z,95.10
2018-03-28T13:17:55.997Z,95.30
2018-03-28T13:20:23.465Z,95.30
2018-03-28T13:22:50.945Z,95.30
2018-03-28T13:25:19.205Z,96.00
2018-03-28T13:27:46.686Z,96.00
2018-03-28T13:30:15.258Z,96.50
2018-03-28T13:32:42.726Z,96.40
2018-03-28T13:35:10.196Z,96.40
2018-03-28T13:37:38.515Z,96.60
2018-03-28T13:40:06.004Z,96.60
2018-03-28T13:42:33.492Z,96.50
2018-03-28T13:45:00.953Z,96.30
2018-03-28T13:47:28.425Z,96.20
2018-03-28T13:49:57.102Z,96.30
2018-03-28T13:52:24.572Z,95.80
2018-03-28T13:54:52.056Z,95.80
2018-03-28T13:57:20.291Z,96.10
2018-03-28T13:59:47.756Z,96.10
2018-03-28T14:02:15.229Z,96.30
2018-03-28T14:04:42.695Z,96.80
2018-03-28T14:07:10.182Z,96.90
2018-03-28T14:09:37.661Z,96.20
2018-03-28T14:12:05.898Z,96.20
2018-03-28T14:14:33.360Z,96.10
2018-03-28T14:17:00.836Z,96.10
2018-03-28T14:19:28.362Z,96.20
2018-03-28T14:21:55.856Z,96.30
2018-03-28T14:24:23.292Z,96.20
2018-03-28T14:26:50.764Z,96.30
2018-03-28T14:29:18.245Z,96.70
2018-03-28T14:31:45.739Z,96.30
2018-03-28T14:34:13.958Z,96.50
2018-03-28T14:36:41.429Z,96.20
2018-03-28T14:39:08.904Z,96.20
2018-03-28T14:41:36.384Z,96.20
2018-03-28T14:44:03.874Z,96.10
2018-03-28T14:46:31.331Z,96.20
2018-03-28T14:48:58.808Z,96.40
2018-03-28T14:51:27.053Z,96.30
2018-03-28T14:53:54.525Z,96.20
2018-03-28T14:56:21.997Z,96.20
2018-03-28T14:58:49.481Z,96.40
2018-03-28T15:01:17.721Z,96.40
2018-03-28T15:03:45.205Z,96.40
2018-03-28T15:06:12.676Z,96.60
2018-03-28T15:08:41.627Z,96.80
2018-03-28T15:11:09.081Z,97.20
2018-03-28T15:13:36.541Z,97.40
2018-03-28T15:16:04.008Z,97.40
2018-03-28T15:18:31.475Z,97.20
2018-03-28T15:20:58.958Z,97.20
2018-03-28T15:23:26.419Z,97.50
2018-03-28T15:25:53.887Z,97.10
2018-03-28T15:28:21.346Z,96.90
2018-03-28T15:30:48.831Z,97.10
2018-03-28T15:33:16.315Z,97.10
2018-03-28T15:35:44.554Z,97.10
2018-03-28T15:38:12.006Z,97.10
2018-03-28T15:40:39.475Z,97.10
2018-03-28T15:43:06.945Z,97.30
2018-03-28T15:45:34.456Z,97.30
2018-03-28T15:48:02.669Z,97.30
2018-03-28T15:50:30.195Z,97.30
2018-03-28T15:52:57.616Z,97.10
2018-03-28T15:55:25.088Z,97.10
2018-03-28T15:57:52.673Z,97.30
2018-03-28T16:00:20.144Z,97.20
2018-03-28T16:02:47.619Z,97.40
2018-03-28T16:05:15.857Z,97.10
2018-03-28T16:07:44.099Z,97.10
2018-03-28T16:10:12.360Z,97.20
2018-03-28T16:12:39.806Z,97.40
2018-03-28T16:15:07.283Z,97.30
2018-03-28T16:17:35.520Z,97.30
2018-03-28T16:20:02.977Z,97.30
2018-03-28T16:22:30.466Z,97.00
2018-03-28T16:24:57.991Z,97.00
2018-03-28T16:27:25.464Z,96.90
2018-03-28T16:29:52.974Z,97.00
2018-03-28T16:32:20.432Z,97.00
2018-03-28T16:34:47.938Z,96.90
2018-03-28T16:37:16.166Z,96.80
2018-03-28T16:39:43.647Z,96.80
2018-03-28T16:42:11.118Z,96.80
2018-03-28T16:44:38.583Z,97.10
2018-03-28T16:47:06.853Z,97.50
2018-03-28T16:49:34.336Z,97.30
2018-03-28T16:52:02.571Z,97.50
2018-03-28T16:54:30.038Z,97.40
2018-03-28T16:56:57.523Z,97.40
2018-03-28T16:59:25.036Z,97.40
2018-03-28T17:01:52.504Z,97.40
2018-03-28T17:04:19.973Z,97.50
2018-03-28T17:06:47.444Z,97.50
2018-03-28T17:09:14.927Z,97.50
2018-03-28T17:11:42.421Z,97.50
2018-03-28T17:14:10.825Z,97.90
2018-03-28T17:16:39.140Z,97.70
2018-03-28T17:19:06.549Z,97.60
2018-03-28T17:21:34.784Z,97.80
2018-03-28T17:24:02.270Z,97.70
2018-03-28T17:26:29.743Z,97.70
2018-03-28T17:28:57.216Z,97.70
2018-03-28T17:31:24.689Z,97.70
2018-03-28T17:33:52.930Z,98.10
2018-03-28T17:36:20.494Z,98.10
2018-03-28T17:38:47.920Z,98.40
2018-03-28T17:41:15.376Z,98.30
2018-03-28T17:43:43.615Z,98.80
2018-03-28T17:46:11.105Z,98.70
2018-03-28T17:48:38.577Z,98.70
2018-03-28T17:51:06.815Z,98.00
2018-03-28T17:53:34.286Z,98.00
2018-03-28T17:56:01.781Z,97.60
2018-03-28T17:58:30.020Z,97.40
2018-03-28T18:00:57.490Z,97.40
2018-03-28T18:03:24.957Z,97.60
2018-03-28T18:05:52.451Z,97.90
2018-03-28T18:08:19.912Z,97.50
2018-03-28T18:10:48.158Z,97.80
2018-03-28T18:13:15.656Z,97.80
2018-03-28T18:15:43.402Z,97.70
2018-03-28T18:18:10.910Z,97.70
2018-03-28T18:20:38.397Z,97.60
2018-03-28T18:23:05.881Z,97.70
2018-03-28T18:25:34.160Z,97.40
2018-03-28T18:28:01.687Z,97.40
2018-03-28T18:30:29.202Z,97.40
2018-03-28T18:32:56.684Z,97.60
2018-03-28T18:35:24.173Z,97.60
2018-03-28T18:37:52.453Z,97.90
2018-03-28T18:40:20.759Z,97.70
2018-03-28T18:42:48.255Z,97.60
2018-03-28T18:45:15.777Z,97.70
2018-03-28T18:47:43.285Z,97.70
2018-03-28T18:50:10.808Z,97.70
2018-03-28T18:52:38.378Z,97.70
2018-03-28T18:55:05.859Z,97.70
2018-03-28T18:57:33.392Z,97.60
2018-03-28T19:00:01.633Z,95.40
2018-03-28T19:02:29.162Z,95.40
2018-03-28T19:04:56.689Z,96.20
2018-03-28T19:07:24.960Z,95.70
2018-03-28T19:09:52.508Z,95.70
2018-03-28T19:12:20.013Z,95.50
2018-03-28T19:14:48.327Z,94.80
2018-03-28T19:17:15.865Z,94.80
2018-03-28T19:19:45.117Z,93.50
2018-03-28T19:22:13.097Z,93.50
2018-03-28T19:24:40.691Z,92.20
2018-03-28T19:27:08.357Z,90.80
2018-03-28T19:29:36.037Z,90.70
2018-03-28T19:32:04.460Z,89.40
2018-03-28T19:34:32.136Z,89.40
2018-03-28T19:36:59.734Z,90.30
2018-03-28T19:39:27.354Z,90.20
2018-03-28T19:41:55.158Z,89.30
2018-03-28T19:44:22.660Z,90.00
2018-03-28T19:46:51.063Z,90.10
2018-03-28T19:49:18.640Z,90.00
2018-03-28T19:51:46.226Z,90.00
2018-03-28T19:54:14.731Z,90.10
2018-03-28T19:56:42.677Z,89.70
2018-03-28T19:59:10.410Z,89.70
2018-03-28T20:01:38.820Z,90.50
2018-03-28T20:04:06.469Z,90.70
2018-03-28T20:06:34.068Z,90.50
2018-03-28T20:09:01.623Z,90.70
2018-03-28T20:11:29.138Z,90.20
2018-03-28T20:13:57.498Z,91.10
2018-03-28T20:16:25.041Z,91.00
2018-03-28T20:18:52.529Z,90.90
2018-03-28T20:21:20.205Z,91.40
2018-03-28T20:23:47.775Z,91.10
2018-03-28T20:26:15.366Z,91.00
2018-03-28T20:28:43.772Z,91.10
2018-03-28T20:31:11.333Z,91.10
2018-03-28T20:33:38.862Z,91.20
2018-03-28T20:36:06.440Z,91.10
2018-03-28T20:38:34.821Z,90.90
2018-03-28T20:41:03.437Z,90.90
2018-03-28T20:43:31.087Z,90.90
2018-03-28T20:45:59.368Z,90.90
2018-03-28T20:48:27.662Z,90.80
2018-03-28T20:50:55.924Z,90.70
2018-03-28T20:53:24.208Z,91.00
2018-03-28T20:55:52.518Z,90.80
2018-03-28T20:58:20.000Z,90.70
2018-03-28T21:00:47.514Z,90.90
2018-03-28T21:03:15.003Z,90.80
2018-03-28T21:05:42.553Z,90.90
2018-03-28T21:08:10.837Z,90.80
2018-03-28T21:10:39.313Z,90.60
2018-03-28T21:13:06.914Z,90.60
2018-03-28T21:15:35.113Z,90.40
2018-03-28T21:18:03.015Z,90.10
2018-03-28T21:20:30.712Z,90.10
2018-03-28T21:22:58.240Z,89.90
2018-03-28T21:25:25.737Z,89.80
2018-03-28T21:27:54.389Z,89.90
2018-03-28T21:30:22.859Z,90.00
2018-03-28T21:32:50.566Z,90.00
2018-03-28T21:35:18.144Z,90.00
2018-03-28T21:37:45.625Z,90.10
2018-03-28T21:40:13.902Z,89.50
2018-03-28T21:42:41.610Z,89.50
2018-03-28T21:45:09.469Z,90.00
2018-03-28T21:47:37.011Z,90.00
2018-03-28T21:50:04.726Z,90.30
2018-03-28T21:52:32.343Z,89.80
2018-03-28T21:55:00.065Z,89.40
2018-03-28T21:57:28.589Z,89.10
2018-03-28T21:59:57.246Z,88.70
2018-03-28T22:02:26.099Z,88.60
2018-03-28T22:04:54.262Z,88.60
2018-03-28T22:07:22.921Z,89.00
2018-03-28T22:09:50.516Z,89.40
2018-03-28T22:12:18.934Z,88.10
2018-03-28T22:14:46.459Z,88.10
2018-03-28T22:17:14.722Z,87.30
2018-03-28T22:19:42.584Z,87.20
2018-03-28T22:22:10.120Z,86.10
2018-03-28T22:24:38.607Z,86.90
2018-03-28T22:27:06.122Z,86.80
2018-03-28T22:29:33.617Z,86.70
2018-03-28T22:32:01.143Z,86.90
2018-03-28T22:34:28.644Z,87.30
2018-03-28T22:36:56.897Z,86.60
2018-03-28T22:39:24.401Z,86.60
2018-03-28T22:41:51.882Z,87.10
2018-03-28T22:44:19.700Z,86.70
2018-03-28T22:46:47.163Z,87.10
2018-03-28T22:49:14.636Z,87.50
2018-03-28T22:51:42.872Z,87.20
2018-03-28T22:54:10.347Z,86.70
2018-03-28T22:56:37.825Z,87.00
2018-03-28T22:59:05.300Z,87.40
2018-03-28T23:01:32.755Z,87.00
2018-03-28T23:04:00.247Z,87.70
2018-03-28T23:06:28.471Z,88.10
2018-03-28T23:08:56.250Z,88.10
2018-03-28T23:11:23.715Z,88.80
2018-03-28T23:13:51.190Z,89.10
2018-03-28T23:16:18.653Z,89.00
2018-03-28T23:18:46.099Z,89.70
2018-03-28T23:21:13.576Z,90.10
2018-03-28T23:23:41.039Z,90.20
2018-03-28T23:26:08.517Z,89.80
2018-03-28T23:28:35.978Z,89.00
2018-03-28T23:31:03.446Z,88.90
2018-03-28T23:33:30.933Z,88.90
2018-03-28T23:35:59.154Z,88.80
2018-03-28T23:38:26.620Z,88.70
2018-03-28T23:40:54.091Z,86.70
2018-03-28T23:43:21.554Z,86.70
2018-03-28T23:45:49.051Z,88.00
2018-03-28T23:48:16.513Z,87.00
2018-03-28T23:50:43.990Z,85.40
2018-03-28T23:53:12.234Z,85.40
2018-03-28T23:55:39.699Z,85.40
2018-03-28T23:58:07.190Z,85.20
